Terminal Aerodrome Forecast
Issued by NWS

Home | Current Version | Previous Version | Graphics & Text | Print | Product List | Glossary On
Versions: 1 2 3 4 5 6 7 8 9 10 11 12 13 14 15
000
FTUS43 KBIS 201123
TAFMOT
TAF
KMOT 201123Z 2012/2112 VRB03KT P6SM FEW250
     FM210500 13007KT P6SM SCT200
     FM210900 14009KT P6SM SCT200 WS020/18040KT=

USA.gov is the U.S. government's official web portal to all federal, state and local government web resources and services.